createdAt,value
2022-09-28T00:00:54.002Z,95190.19
2022-09-28T00:03:20.349Z,95181.81
2022-09-28T00:05:46.676Z,95170.19
2022-09-28T00:08:13.014Z,95168.63
2022-09-28T00:10:39.356Z,95166.13
2022-09-28T00:13:05.701Z,95160.69
2022-09-28T00:15:32.033Z,95154.38
2022-09-28T00:17:58.369Z,95140.38
2022-09-28T00:20:24.709Z,95136.66
2022-09-28T00:22:51.045Z,95128.72
2022-09-28T00:25:17.382Z,95127.91
2022-09-28T00:27:43.705Z,95122.66
2022-09-28T00:30:10.034Z,95117.16
2022-09-28T00:32:36.367Z,95108.00
2022-09-28T00:35:02.710Z,95111.09
2022-09-28T00:37:29.071Z,95111.72
2022-09-28T00:39:55.422Z,95115.94
2022-09-28T00:42:21.773Z,95103.31
2022-09-28T00:44:48.109Z,95094.16
2022-09-28T00:47:14.440Z,95093.84
2022-09-28T00:49:40.768Z,95089.69
2022-09-28T00:52:07.091Z,95085.69
2022-09-28T00:54:33.411Z,95088.50
2022-09-28T00:56:59.740Z,95088.94
2022-09-28T00:59:26.085Z,95075.84
2022-09-28T01:01:52.450Z,95072.34
2022-09-28T01:04:18.795Z,95079.72
2022-09-28T01:06:45.129Z,95081.53
2022-09-28T01:09:11.466Z,95066.28
2022-09-28T01:11:37.793Z,95074.13
2022-09-28T01:14:04.124Z,95066.84
2022-09-28T01:16:30.606Z,95071.03
2022-09-28T01:18:57.006Z,95070.72
2022-09-28T01:21:23.324Z,95073.28
2022-09-28T01:23:49.707Z,95058.59
2022-09-28T01:26:16.067Z,95058.03
2022-09-28T01:28:42.397Z,95063.22
2022-09-28T01:31:08.771Z,95056.22
2022-09-28T01:33:35.138Z,95041.25
2022-09-28T01:36:01.476Z,95052.78
2022-09-28T01:38:27.847Z,95035.47
2022-09-28T01:40:54.239Z,95021.69
2022-09-28T01:43:20.612Z,95041.13
2022-09-28T01:45:46.981Z,95036.97
2022-09-28T01:48:13.341Z,95027.13
2022-09-28T01:50:39.675Z,95021.81
2022-09-28T01:53:06.004Z,95026.47
2022-09-28T01:55:32.334Z,95031.84
2022-09-28T01:57:58.664Z,95022.28
2022-09-28T02:00:24.992Z,95016.00
2022-09-28T02:02:51.335Z,95009.25
2022-09-28T02:05:17.670Z,95003.38
2022-09-28T02:07:43.989Z,94996.94
2022-09-28T02:10:10.330Z,94986.78
2022-09-28T02:12:36.687Z,94984.00
2022-09-28T02:15:03.054Z,94991.91
2022-09-28T02:17:29.419Z,94985.31
2022-09-28T02:19:55.759Z,94979.19
2022-09-28T02:22:22.077Z,94972.66
2022-09-28T02:24:48.408Z,94974.44
2022-09-28T02:27:14.738Z,94973.38
2022-09-28T02:29:41.062Z,94963.16
2022-09-28T02:32:07.389Z,94955.78
2022-09-28T02:34:33.724Z,94952.56
2022-09-28T02:37:00.046Z,94947.25
2022-09-28T02:39:26.356Z,94940.66
2022-09-28T02:41:52.689Z,94928.69
2022-09-28T02:44:19.003Z,94936.91
2022-09-28T02:46:45.329Z,94937.03
2022-09-28T02:49:21.398Z,94941.19
2022-09-28T02:51:48.321Z,94942.66
2022-09-28T02:54:18.633Z,94939.63
2022-09-28T02:56:45.309Z,94931.66
2022-09-28T02:59:11.640Z,94934.44
2022-09-28T03:01:37.991Z,94919.78
2022-09-28T03:04:04.332Z,94907.03
2022-09-28T03:06:30.669Z,94911.72
2022-09-28T03:08:57.003Z,94904.94
2022-09-28T03:11:23.334Z,94905.16
2022-09-28T03:13:49.665Z,94896.56
2022-09-28T03:16:16.031Z,94894.28
2022-09-28T03:18:42.396Z,94891.56
2022-09-28T03:21:08.732Z,94889.25
2022-09-28T03:23:35.056Z,94889.72
2022-09-28T03:26:01.387Z,94889.75
2022-09-28T03:28:27.725Z,94893.94
2022-09-28T03:30:54.051Z,94893.41
2022-09-28T03:33:20.391Z,94872.88
2022-09-28T03:35:46.713Z,94880.38
2022-09-28T03:38:13.041Z,94879.22
2022-09-28T03:40:39.465Z,94880.13
2022-09-28T03:43:05.809Z,94859.69
2022-09-28T03:45:32.196Z,94848.38
2022-09-28T03:47:58.534Z,94852.59
2022-09-28T03:50:24.851Z,94867.19
2022-09-28T03:52:51.168Z,94842.47
2022-09-28T03:55:17.497Z,94850.75
2022-09-28T03:57:43.823Z,94840.50
2022-09-28T04:00:10.143Z,94841.53
2022-09-28T04:02:36.571Z,94838.44
2022-09-28T04:05:02.970Z,94830.38
2022-09-28T04:07:31.200Z,94826.16
2022-09-28T04:09:57.729Z,94831.53
2022-09-28T04:12:24.048Z,94826.88
2022-09-28T04:14:50.399Z,94826.75
2022-09-28T04:17:16.730Z,94828.53
2022-09-28T04:19:43.066Z,94827.28
2022-09-28T04:22:09.386Z,94827.06
2022-09-28T04:24:35.704Z,94825.47
2022-09-28T04:27:02.047Z,94829.84
2022-09-28T04:29:28.383Z,94822.16
2022-09-28T04:31:54.729Z,94824.66
2022-09-28T04:34:21.068Z,94815.19
2022-09-28T04:36:47.377Z,94817.97
2022-09-28T04:39:13.718Z,94800.81
2022-09-28T04:41:40.103Z,94792.19
2022-09-28T04:44:06.433Z,94788.53
2022-09-28T04:46:32.753Z,94780.59
2022-09-28T04:48:59.089Z,94798.25
2022-09-28T04:51:25.403Z,94791.53
2022-09-28T04:53:51.743Z,94797.44
2022-09-28T04:56:18.077Z,94787.81
2022-09-28T04:58:46.876Z,94781.09
2022-09-28T05:01:15.466Z,94783.38
2022-09-28T05:03:41.844Z,94771.44
2022-09-28T05:06:08.172Z,94768.50
2022-09-28T05:08:34.497Z,94763.84
2022-09-28T05:11:00.836Z,94748.84
2022-09-28T05:13:27.187Z,94761.13
2022-09-28T05:15:57.460Z,94744.16
2022-09-28T05:18:25.241Z,94749.13
2022-09-28T05:20:51.555Z,94729.34
2022-09-28T05:23:17.872Z,94733.78
2022-09-28T05:25:44.326Z,94729.38
2022-09-28T05:28:10.666Z,94723.91
2022-09-28T05:30:37.011Z,94733.13
2022-09-28T05:33:03.369Z,94714.16
2022-09-28T05:35:29.735Z,94726.63
2022-09-28T05:37:56.080Z,94736.59
2022-09-28T05:40:22.461Z,94741.97
2022-09-28T05:42:48.858Z,94755.06
2022-09-28T05:45:15.175Z,94751.78
2022-09-28T05:47:41.503Z,94741.97
2022-09-28T05:50:07.845Z,94749.13
2022-09-28T05:52:34.177Z,94742.75
2022-09-28T05:55:00.516Z,94742.31
2022-09-28T05:57:26.831Z,94733.88
2022-09-28T05:59:53.161Z,94740.28
2022-09-28T06:02:19.563Z,94737.19
2022-09-28T06:04:45.926Z,94735.94
2022-09-28T06:07:12.258Z,94750.06
2022-09-28T06:09:38.594Z,94742.03
2022-09-28T06:12:04.931Z,94741.09
2022-09-28T06:14:31.277Z,94741.25
2022-09-28T06:16:57.697Z,94730.09
2022-09-28T06:19:24.093Z,94722.41
2022-09-28T06:21:50.428Z,94742.88
2022-09-28T06:24:16.913Z,94727.88
2022-09-28T06:26:43.328Z,94731.13
2022-09-28T06:29:09.653Z,94727.25
2022-09-28T06:31:35.989Z,94724.47
2022-09-28T06:34:02.326Z,94731.19
2022-09-28T06:36:28.653Z,94727.56
2022-09-28T06:38:54.994Z,94742.97
2022-09-28T06:41:21.332Z,94745.75
2022-09-28T06:43:47.658Z,94747.75
2022-09-28T06:46:14.009Z,94747.69
2022-09-28T06:48:40.406Z,94747.59
2022-09-28T06:51:06.753Z,94755.47
2022-09-28T06:53:33.080Z,94744.84
2022-09-28T06:55:59.404Z,94748.75
2022-09-28T06:58:25.724Z,94748.72
2022-09-28T07:00:52.093Z,94751.09
2022-09-28T07:03:18.498Z,94752.44
2022-09-28T07:05:44.825Z,94754.28
2022-09-28T07:08:11.167Z,94755.81
2022-09-28T07:10:37.498Z,94761.50
2022-09-28T07:13:03.837Z,94771.25
2022-09-28T07:15:30.168Z,94763.88
2022-09-28T07:18:02.138Z,94762.84
2022-09-28T07:20:29.784Z,94766.25
2022-09-28T07:22:56.732Z,94764.56
2022-09-28T07:25:24.255Z,94763.75
2022-09-28T07:27:50.592Z,94772.50
2022-09-28T07:30:16.926Z,94766.25
2022-09-28T07:32:43.243Z,94763.75
2022-09-28T07:35:09.569Z,94759.19
2022-09-28T07:37:35.905Z,94758.75
2022-09-28T07:40:02.436Z,94768.25
2022-09-28T07:42:28.756Z,94756.22
2022-09-28T07:44:55.082Z,94755.94
2022-09-28T07:47:21.421Z,94753.31
2022-09-28T07:49:47.744Z,94761.69
2022-09-28T07:52:14.075Z,94762.66
2022-09-28T07:54:40.406Z,94772.50
2022-09-28T07:57:06.756Z,94765.69
2022-09-28T07:59:33.098Z,94770.59
2022-09-28T08:01:59.511Z,94764.22
2022-09-28T08:04:25.860Z,94767.16
2022-09-28T08:06:52.197Z,94760.72
2022-09-28T08:09:18.696Z,94760.72
2022-09-28T08:11:45.132Z,94765.03
2022-09-28T08:14:11.465Z,94762.28
2022-09-28T08:19:09.046Z,94767.75
2022-09-28T08:21:35.405Z,94762.28
2022-09-28T08:24:01.730Z,94763.47
2022-09-28T08:26:28.068Z,94765.78
2022-09-28T08:28:54.400Z,94773.81
2022-09-28T08:31:20.791Z,94790.19
2022-09-28T08:33:47.211Z,94774.00
2022-09-28T08:36:13.542Z,94760.34
2022-09-28T08:38:39.890Z,94783.53
2022-09-28T08:41:06.236Z,94771.78
2022-09-28T08:43:32.566Z,94760.88
2022-09-28T08:45:59.001Z,94772.25
2022-09-28T08:48:25.380Z,94767.91
2022-09-28T08:50:51.707Z,94768.19
2022-09-28T08:53:18.046Z,94762.84
2022-09-28T08:55:44.391Z,94772.78
2022-09-28T08:58:10.722Z,94783.13
2022-09-28T09:00:37.044Z,94788.63
2022-09-28T09:03:03.408Z,94781.75
2022-09-28T09:05:29.732Z,94781.84
2022-09-28T09:07:56.071Z,94775.13
2022-09-28T09:10:22.399Z,94788.72
2022-09-28T09:12:48.756Z,94782.75
2022-09-28T09:15:15.149Z,94785.44
2022-09-28T09:17:41.479Z,94792.91
2022-09-28T09:20:07.877Z,94774.84
2022-09-28T09:22:34.223Z,94786.75
2022-09-28T09:25:00.572Z,94794.84
2022-09-28T09:27:26.898Z,94794.22
2022-09-28T09:29:53.219Z,94790.00
2022-09-28T09:32:19.555Z,94799.38
2022-09-28T09:34:45.895Z,94788.94
2022-09-28T09:37:12.221Z,94788.94
2022-09-28T09:39:38.558Z,94788.94
2022-09-28T09:42:04.882Z,94782.13
2022-09-28T09:44:31.215Z,94777.31
2022-09-28T09:46:57.550Z,94786.94
2022-09-28T09:49:23.877Z,94779.97
2022-09-28T09:51:50.217Z,94777.97
2022-09-28T09:54:16.556Z,94784.03
2022-09-28T09:56:42.872Z,94793.16
2022-09-28T09:59:09.217Z,94776.47
2022-09-28T10:01:35.585Z,94784.38
2022-09-28T10:04:01.949Z,94783.06
2022-09-28T10:06:28.281Z,94789.94
2022-09-28T10:08:54.615Z,94791.13
2022-09-28T10:11:20.942Z,94792.81
2022-09-28T10:13:47.288Z,94782.88
2022-09-28T10:16:13.650Z,94781.50
2022-09-28T10:18:40.010Z,94781.38
2022-09-28T10:21:06.352Z,94774.97
2022-09-28T10:23:32.702Z,94776.00
2022-09-28T10:25:59.052Z,94765.28
2022-09-28T10:28:25.391Z,94772.16
2022-09-28T10:30:51.835Z,94770.59
2022-09-28T10:33:18.292Z,94772.66
2022-09-28T10:35:44.635Z,94768.41
2022-09-28T10:38:10.956Z,94767.59
2022-09-28T10:40:37.305Z,94768.31
2022-09-28T10:43:03.666Z,94762.97
2022-09-28T10:45:29.997Z,94747.13
2022-09-28T10:47:56.331Z,94752.56
2022-09-28T10:50:22.654Z,94743.47
2022-09-28T10:52:48.981Z,94736.44
2022-09-28T10:55:15.324Z,94740.06
2022-09-28T10:57:41.654Z,94746.00
2022-09-28T11:00:08.004Z,94745.28
2022-09-28T11:02:36.191Z,94750.59
2022-09-28T11:05:02.875Z,94745.50
2022-09-28T11:07:29.203Z,94742.91
2022-09-28T11:09:55.533Z,94737.03
2022-09-28T11:12:21.862Z,94743.03
2022-09-28T11:14:48.194Z,94743.16
2022-09-28T11:17:14.537Z,94741.00
2022-09-28T11:19:40.863Z,94739.91
2022-09-28T11:22:07.178Z,94742.13
2022-09-28T11:24:33.512Z,94751.00
2022-09-28T11:26:59.832Z,94749.38
2022-09-28T11:29:26.162Z,94744.56
2022-09-28T11:31:52.497Z,94749.56
2022-09-28T11:34:18.994Z,94747.66
2022-09-28T11:36:45.411Z,94749.84
2022-09-28T11:39:11.732Z,94742.94
2022-09-28T11:41:38.060Z,94743.59
2022-09-28T11:44:04.391Z,94737.19
2022-09-28T11:46:30.758Z,94728.94
2022-09-28T11:48:57.128Z,94722.28
2022-09-28T11:51:23.474Z,94721.13
2022-09-28T11:53:49.824Z,94719.25
2022-09-28T11:56:16.156Z,94719.97
2022-09-28T11:58:42.487Z,94718.72
2022-09-28T12:01:08.814Z,94709.22
2022-09-28T12:03:35.225Z,94705.53
2022-09-28T12:06:01.662Z,94718.78
2022-09-28T12:08:28.001Z,94700.84
2022-09-28T12:10:54.345Z,94706.66
2022-09-28T12:13:20.678Z,94712.13
2022-09-28T12:16:15.058Z,94700.97
2022-09-28T12:18:33.345Z,94695.50
2022-09-28T12:21:04.443Z,94697.03
2022-09-28T12:23:31.635Z,94696.31
2022-09-28T12:25:57.972Z,94704.41
2022-09-28T12:28:24.292Z,94699.75
2022-09-28T12:30:50.675Z,94701.75
2022-09-28T12:33:17.032Z,94699.59
2022-09-28T12:35:43.355Z,94697.84
2022-09-28T12:38:09.697Z,94686.66
2022-09-28T12:40:36.085Z,94695.34
2022-09-28T12:43:02.447Z,94684.34
2022-09-28T12:45:28.776Z,94687.75
2022-09-28T12:47:55.097Z,94690.84
2022-09-28T12:50:38.239Z,94684.94
2022-09-28T12:53:05.322Z,94678.38
2022-09-28T12:55:31.649Z,94673.56
2022-09-28T12:57:57.992Z,94676.84
2022-09-28T13:00:24.372Z,94676.06
2022-09-28T13:02:50.735Z,94665.16
2022-09-28T13:05:17.110Z,94660.31
2022-09-28T13:07:43.443Z,94666.38
2022-09-28T13:10:09.778Z,94665.25
2022-09-28T13:12:36.105Z,94658.41
2022-09-28T13:15:02.421Z,94656.66
2022-09-28T13:17:28.751Z,94664.66
2022-09-28T13:19:55.087Z,94663.72
2022-09-28T13:22:21.421Z,94661.56
2022-09-28T13:24:47.756Z,94670.94
2022-09-28T13:27:14.093Z,94670.09
2022-09-28T13:29:40.416Z,94675.97
2022-09-28T13:32:06.751Z,94691.72
2022-09-28T13:34:33.104Z,94680.78
2022-09-28T13:36:59.450Z,94687.03
2022-09-28T13:39:25.769Z,94681.47
2022-09-28T13:41:52.092Z,94691.47
2022-09-28T13:44:18.500Z,94699.56
2022-09-28T13:46:44.877Z,94702.97
2022-09-28T13:49:11.222Z,94691.81
2022-09-28T13:51:37.557Z,94701.69
2022-09-28T13:54:03.896Z,94700.78
2022-09-28T13:56:30.224Z,94687.28
2022-09-28T13:58:56.548Z,94686.97
2022-09-28T14:01:22.910Z,94706.38
2022-09-28T14:03:49.295Z,94696.72
2022-09-28T14:08:42.859Z,94692.38
2022-09-28T14:11:09.380Z,94695.34
2022-09-28T14:13:35.734Z,94690.81
2022-09-28T14:16:02.115Z,94696.75
2022-09-28T14:18:28.487Z,94696.09
2022-09-28T14:20:54.814Z,94689.88
2022-09-28T14:23:21.146Z,94689.69
2022-09-28T14:25:47.491Z,94688.16
2022-09-28T14:28:13.838Z,94698.47
2022-09-28T14:30:40.205Z,94694.38
2022-09-28T14:33:06.569Z,94704.53
2022-09-28T14:35:32.917Z,94719.34
2022-09-28T14:37:59.231Z,94718.44
2022-09-28T14:40:25.586Z,94714.09
2022-09-28T14:45:18.240Z,94712.63
2022-09-28T14:47:44.577Z,94705.59
2022-09-28T14:50:14.572Z,94726.56
2022-09-28T14:52:41.152Z,94714.88
2022-09-28T14:55:07.491Z,94717.34
2022-09-28T14:57:33.815Z,94720.34
2022-09-28T15:00:00.175Z,94721.22
2022-09-28T15:02:26.509Z,94724.66
2022-09-28T15:04:53.021Z,94725.44
2022-09-28T15:07:19.488Z,94730.53
2022-09-28T15:09:45.818Z,94731.78
2022-09-28T15:12:12.146Z,94729.75
2022-09-28T15:14:38.490Z,94728.72
2022-09-28T15:17:04.825Z,94725.28
2022-09-28T15:19:31.157Z,94724.28
2022-09-28T15:21:57.480Z,94723.47
2022-09-28T15:24:23.803Z,94716.53
2022-09-28T15:26:50.130Z,94709.81
2022-09-28T15:29:16.459Z,94726.59
2022-09-28T15:31:42.974Z,94733.66
2022-09-28T15:34:09.320Z,94716.13
2022-09-28T15:36:35.647Z,94717.03
2022-09-28T15:39:01.969Z,94719.88
2022-09-28T15:41:28.308Z,94727.69
2022-09-28T15:43:54.648Z,94719.59
2022-09-28T15:46:21.103Z,94726.91
2022-09-28T15:48:47.513Z,94732.38
2022-09-28T15:51:13.843Z,94727.59
2022-09-28T15:53:40.174Z,94733.06
2022-09-28T15:56:06.515Z,94722.69
2022-09-28T15:58:32.861Z,94728.94
2022-09-28T16:00:59.204Z,94742.03
2022-09-28T16:03:25.530Z,94738.72
2022-09-28T16:05:51.869Z,94737.50
2022-09-28T16:08:18.213Z,94736.72
2022-09-28T16:10:44.537Z,94754.78
2022-09-28T16:13:10.874Z,94766.47
2022-09-28T16:15:37.284Z,94765.75
2022-09-28T16:18:03.685Z,94768.69
2022-09-28T16:20:30.074Z,94780.13
2022-09-28T16:22:56.476Z,94786.47
2022-09-28T16:25:22.817Z,94789.63
2022-09-28T16:27:49.173Z,94793.09
2022-09-28T16:30:15.512Z,94796.38
2022-09-28T16:32:41.952Z,94801.28
2022-09-28T16:35:08.340Z,94802.53
2022-09-28T16:37:34.674Z,94809.63
2022-09-28T16:40:01.015Z,94818.88
2022-09-28T16:42:27.446Z,94813.69
2022-09-28T16:44:53.819Z,94821.25
2022-09-28T16:47:20.157Z,94828.53
2022-09-28T16:49:46.502Z,94828.00
2022-09-28T16:52:12.829Z,94818.59
2022-09-28T16:54:39.160Z,94827.34
2022-09-28T16:57:05.488Z,94831.03
2022-09-28T16:59:31.819Z,94834.28
2022-09-28T17:01:58.213Z,94845.56
2022-09-28T17:04:24.658Z,94846.84
2022-09-28T17:06:51.018Z,94843.28
2022-09-28T17:09:17.458Z,94851.66
2022-09-28T17:11:43.833Z,94851.66
2022-09-28T17:14:10.165Z,94858.66
2022-09-28T17:17:06.168Z,94868.75
2022-09-28T17:19:22.823Z,94867.69
2022-09-28T17:21:49.156Z,94881.69
2022-09-28T17:24:15.499Z,94877.59
2022-09-28T17:26:41.827Z,94881.16
2022-09-28T17:29:08.160Z,94879.50
2022-09-28T17:31:34.498Z,94885.13
2022-09-28T17:34:00.832Z,94879.09
2022-09-28T17:36:27.162Z,94884.03
2022-09-28T17:38:53.488Z,94877.50
2022-09-28T17:41:20.782Z,94883.78
2022-09-28T17:43:47.454Z,94887.16
2022-09-28T17:46:13.798Z,94886.50
2022-09-28T17:48:40.142Z,94883.50
2022-09-28T17:51:06.471Z,94879.22
2022-09-28T17:53:32.801Z,94873.63
2022-09-28T17:55:59.134Z,94888.03
2022-09-28T17:58:25.493Z,94884.81
2022-09-28T18:00:51.816Z,94882.41
2022-09-28T18:03:18.149Z,94891.28
2022-09-28T18:05:44.492Z,94895.78
2022-09-28T18:08:10.831Z,94894.88
2022-09-28T18:10:37.170Z,94901.88
2022-09-28T18:13:03.505Z,94892.50
2022-09-28T18:15:29.876Z,94896.31
2022-09-28T18:17:56.232Z,94890.13
2022-09-28T18:20:22.571Z,94887.59
2022-09-28T18:22:48.905Z,94886.16
2022-09-28T18:25:15.230Z,94888.38
2022-09-28T18:27:41.553Z,94890.66
2022-09-28T18:30:07.870Z,94895.94
2022-09-28T18:32:34.202Z,94889.47
2022-09-28T18:35:00.539Z,94890.16
2022-09-28T18:37:26.869Z,94879.78
2022-09-28T18:39:53.205Z,94891.91
2022-09-28T18:42:19.538Z,94885.22
2022-09-28T18:44:45.870Z,94895.63
2022-09-28T18:47:12.196Z,94892.09
2022-09-28T18:49:38.540Z,94888.59
2022-09-28T18:52:04.876Z,94884.50
2022-09-28T18:54:31.213Z,94885.09
2022-09-28T18:56:57.557Z,94887.84
2022-09-28T18:59:24.019Z,94883.31
2022-09-28T19:01:50.531Z,94885.47
2022-09-28T19:04:16.898Z,94885.66
2022-09-28T19:06:43.238Z,94891.31
2022-09-28T19:09:09.596Z,94884.88
2022-09-28T19:11:35.948Z,94882.34
2022-09-28T19:14:02.276Z,94887.44
2022-09-28T19:16:28.604Z,94883.31
2022-09-28T19:18:54.953Z,94877.91
2022-09-28T19:21:22.780Z,94883.28
2022-09-28T19:23:49.941Z,94883.97
2022-09-28T19:26:16.412Z,94890.25
2022-09-28T19:28:42.736Z,94879.59
2022-09-28T19:31:09.166Z,94883.91
2022-09-28T19:33:36.745Z,94888.44
2022-09-28T19:36:03.365Z,94890.59
2022-09-28T19:38:29.781Z,94888.16
2022-09-28T19:40:57.370Z,94885.38
2022-09-28T19:43:25.319Z,94888.50
2022-09-28T19:45:53.684Z,94887.94
2022-09-28T19:48:20.318Z,94887.25
2022-09-28T19:50:46.637Z,94886.75
2022-09-28T19:53:13.907Z,94890.56
2022-09-28T19:55:41.145Z,94887.03
2022-09-28T19:58:07.907Z,94881.22
2022-09-28T20:00:34.317Z,94885.50
2022-09-28T20:03:00.752Z,94890.69
2022-09-28T20:05:27.941Z,94886.84
2022-09-28T20:07:54.390Z,94894.19
2022-09-28T20:10:20.752Z,94894.00
2022-09-28T20:12:47.037Z,94904.06
2022-09-28T20:15:13.360Z,94898.19
2022-09-28T20:17:39.692Z,94898.44
2022-09-28T20:20:10.489Z,94895.28
2022-09-28T20:22:37.187Z,94891.34
2022-09-28T20:25:03.521Z,94894.69
2022-09-28T20:27:31.370Z,94896.63
2022-09-28T20:29:57.796Z,94890.38
2022-09-28T20:32:24.137Z,94884.97
2022-09-28T20:34:50.471Z,94884.22
2022-09-28T20:37:16.808Z,94888.09
2022-09-28T20:39:45.122Z,94882.66
2022-09-28T20:42:11.641Z,94880.03
2022-09-28T20:44:37.973Z,94865.38
2022-09-28T20:47:04.317Z,94889.22
2022-09-28T20:49:30.663Z,94891.78
2022-09-28T20:51:56.995Z,94885.91
2022-09-28T20:54:23.326Z,94882.59
2022-09-28T20:56:49.663Z,94882.75
2022-09-28T20:59:15.994Z,94892.13
2022-09-28T21:01:42.372Z,94890.59
2022-09-28T21:04:08.752Z,94895.59
2022-09-28T21:06:35.086Z,94889.44
2022-09-28T21:09:01.405Z,94889.63
2022-09-28T21:11:27.745Z,94882.75
2022-09-28T21:13:54.074Z,94876.63
2022-09-28T21:16:20.413Z,94869.69
2022-09-28T21:18:46.753Z,94868.69
2022-09-28T21:21:13.078Z,94868.69
2022-09-28T21:23:39.405Z,94866.25
2022-09-28T21:26:05.751Z,94865.97
2022-09-28T21:28:32.083Z,94858.72
2022-09-28T21:30:58.437Z,94865.59
2022-09-28T21:33:24.801Z,94870.59
2022-09-28T21:35:51.143Z,94858.53
2022-09-28T21:38:17.486Z,94863.81
2022-09-28T21:40:43.926Z,94870.56
2022-09-28T21:43:10.321Z,94861.56
2022-09-28T21:45:36.648Z,94862.25
2022-09-28T21:48:02.980Z,94861.78
2022-09-28T21:50:29.322Z,94858.16
2022-09-28T21:52:55.662Z,94860.69
2022-09-28T21:55:21.990Z,94852.06
2022-09-28T21:57:48.344Z,94847.66
2022-09-28T22:00:14.675Z,94848.94
2022-09-28T22:02:41.041Z,94847.38
2022-09-28T22:05:07.393Z,94842.28
2022-09-28T22:07:33.723Z,94843.44
2022-09-28T22:10:00.051Z,94844.16
2022-09-28T22:12:26.395Z,94832.66
2022-09-28T22:14:52.733Z,94844.16
2022-09-28T22:17:19.064Z,94845.16
2022-09-28T22:19:45.398Z,94855.56
2022-09-28T22:22:11.755Z,94854.13
2022-09-28T22:24:38.091Z,94853.00
2022-09-28T22:27:04.437Z,94854.72
2022-09-28T22:29:30.776Z,94849.44
2022-09-28T22:31:57.101Z,94858.09
2022-09-28T22:34:23.430Z,94844.38
2022-09-28T22:36:49.762Z,94845.97
2022-09-28T22:39:16.098Z,94850.66
2022-09-28T22:41:42.437Z,94851.00
2022-09-28T22:44:08.764Z,94856.16
2022-09-28T22:46:35.139Z,94852.69
2022-09-28T22:49:01.619Z,94843.56
2022-09-28T22:51:27.960Z,94846.09
2022-09-28T22:53:54.309Z,94833.41
2022-09-28T22:56:20.650Z,94838.53
2022-09-28T22:58:46.991Z,94834.59
2022-09-28T23:01:13.394Z,94828.81
2022-09-28T23:03:39.777Z,94833.75
2022-09-28T23:06:06.113Z,94832.84
2022-09-28T23:08:32.462Z,94830.50
2022-09-28T23:10:58.821Z,94823.53
2022-09-28T23:13:25.165Z,94837.63
2022-09-28T23:15:51.564Z,94839.91
2022-09-28T23:18:17.899Z,94833.25
2022-09-28T23:20:44.230Z,94829.91
2022-09-28T23:23:10.557Z,94822.94
2022-09-28T23:25:36.885Z,94820.41
2022-09-28T23:28:03.234Z,94822.41
2022-09-28T23:30:29.577Z,94820.06
2022-09-28T23:32:55.899Z,94816.66
2022-09-28T23:35:22.233Z,94818.22
2022-09-28T23:37:48.566Z,94812.22
2022-09-28T23:40:14.903Z,94816.47
2022-09-28T23:42:41.244Z,94809.38
2022-09-28T23:45:07.577Z,94813.56
2022-09-28T23:47:33.901Z,94812.53
2022-09-28T23:50:00.244Z,94804.69
2022-09-28T23:52:26.575Z,94810.78
2022-09-28T23:54:52.897Z,94811.44
2022-09-28T23:57:19.225Z,94806.06
2022-09-28T23:59:45.557Z,94803.31
